QTR1459 HDAM-HCMM
Flight info
| Callsign | QTR1459 |
|---|---|
| Flight time | 1h 33m |
| Altitude | 37000 |
| Route | LUBAR1P LUBAR UR775 MOGDU |
| Aircraft | A320/M-SDE3FGHIRWY/LB1 |
Departure
| Time | 2026-05-05 16:11 |
|---|---|
| Airport | Djibouti-Ambouli Airport (HDAM) |
Arrival
| Time | 2026-05-05 17:45 |
|---|---|
| Airport | Aden Adde International Airport (HCMM) |
| Time | Latitude | Longitude | Altitude | Speed | Heading |
|---|---|---|---|---|---|
| 2026-05-05 15:46 | 11.55138 | 43.14957 | 59 ft | 0 kts | 1° |
| 2026-05-05 16:02 | 11.55121 | 43.14957 | 53 ft | 2 kts | 1° |
| 2026-05-05 16:02 | 11.55105 | 43.14957 | 54 ft | 2 kts | 1° |
| 2026-05-05 16:02 | 11.55088 | 43.14956 | 53 ft | 2 kts | 0° |
| 2026-05-05 16:03 | 11.55072 | 43.14956 | 54 ft | 2 kts | 0° |
| 2026-05-05 16:03 | 11.55055 | 43.14956 | 54 ft | 2 kts | 0° |
| 2026-05-05 16:03 | 11.55039 | 43.14956 | 55 ft | 2 kts | 358° |
| 2026-05-05 16:03 | 11.55023 | 43.14959 | 55 ft | 2 kts | 332° |
| 2026-05-05 16:04 | 11.55009 | 43.14969 | 53 ft | 2 kts | 294° |
| 2026-05-05 16:04 | 11.55006 | 43.14985 | 55 ft | 2 kts | 270° |
| 2026-05-05 16:04 | 11.55006 | 43.15002 | 51 ft | 2 kts | 271° |
| 2026-05-05 16:04 | 11.55006 | 43.15017 | 54 ft | 1 kts | 270° |
| 2026-05-05 16:05 | 11.55006 | 43.15020 | 50 ft | 0 kts | 270° |
| 2026-05-05 16:07 | 11.55006 | 43.14986 | 54 ft | 10 kts | 270° |
| 2026-05-05 16:07 | 11.55008 | 43.14907 | 61 ft | 12 kts | 271° |
| 2026-05-05 16:08 | 11.55010 | 43.14809 | 59 ft | 15 kts | 272° |
| 2026-05-05 16:08 | 11.55010 | 43.14696 | 59 ft | 17 kts | 270° |
| 2026-05-05 16:08 | 11.55004 | 43.14620 | 58 ft | 6 kts | 233° |
| 2026-05-05 16:08 | 11.54956 | 43.14608 | 57 ft | 8 kts | 179° |
| 2026-05-05 16:09 | 11.54889 | 43.14609 | 59 ft | 11 kts | 180° |
| 2026-05-05 16:09 | 11.54807 | 43.14608 | 56 ft | 13 kts | 180° |
| 2026-05-05 16:09 | 11.54753 | 43.14626 | 55 ft | 3 kts | 92° |
| 2026-05-05 16:09 | 11.54753 | 43.14627 | 60 ft | 0 kts | 92° |
| 2026-05-05 16:10 | 11.54753 | 43.14628 | 60 ft | 0 kts | 92° |
| 2026-05-05 16:10 | 11.54752 | 43.14694 | 61 ft | 37 kts | 90° |
| 2026-05-05 16:10 | 11.54746 | 43.15211 | 63 ft | 106 kts | 90° |
| 2026-05-05 16:10 | 11.54730 | 43.16146 | 58 ft | 156 kts | 91° |
| 2026-05-05 16:11 | 11.54707 | 43.17351 | 422 ft | 172 kts | 89° |
| 2026-05-05 16:11 | 11.52950 | 43.20220 | 2227 ft | 194 kts | 149° |
| 2026-05-05 16:12 | 11.51681 | 43.20896 | 2396 ft | 218 kts | 150° |
| 2026-05-05 16:12 | 11.48671 | 43.22471 | 3226 ft | 266 kts | 151° |
| 2026-05-05 16:13 | 11.43569 | 43.25141 | 5717 ft | 278 kts | 150° |
| 2026-05-05 16:13 | 11.41865 | 43.26034 | 6555 ft | 280 kts | 150° |
| 2026-05-05 16:13 | 11.40124 | 43.26946 | 7337 ft | 283 kts | 150° |
| 2026-05-05 16:14 | 11.36601 | 43.28799 | 8953 ft | 287 kts | 148° |
| 2026-05-05 16:14 | 11.32992 | 43.30707 | 10111 ft | 308 kts | 148° |
| 2026-05-05 16:15 | 11.28947 | 43.32814 | 10803 ft | 339 kts | 154° |
| 2026-05-05 16:15 | 11.24436 | 43.34485 | 12043 ft | 349 kts | 157° |
| 2026-05-05 16:16 | 11.19822 | 43.36186 | 13307 ft | 357 kts | 157° |
| 2026-05-05 16:16 | 11.15108 | 43.37933 | 14432 ft | 364 kts | 158° |
| 2026-05-05 16:17 | 11.10311 | 43.39706 | 15573 ft | 370 kts | 158° |
| 2026-05-05 16:17 | 11.07882 | 43.40604 | 16148 ft | 372 kts | 158° |
| 2026-05-05 16:18 | 11.02975 | 43.42416 | 17290 ft | 378 kts | 158° |
| 2026-05-05 16:18 | 11.00497 | 43.43336 | 17855 ft | 381 kts | 158° |
| 2026-05-05 16:18 | 10.95480 | 43.45201 | 18824 ft | 387 kts | 158° |
| 2026-05-05 16:19 | 10.92936 | 43.46142 | 19293 ft | 391 kts | 158° |
| 2026-05-05 16:19 | 10.90373 | 43.47088 | 19759 ft | 394 kts | 158° |
| 2026-05-05 16:19 | 10.85203 | 43.48981 | 20667 ft | 401 kts | 159° |
| 2026-05-05 16:20 | 10.79913 | 43.50907 | 21560 ft | 407 kts | 159° |
| 2026-05-05 16:20 | 10.74531 | 43.52870 | 22431 ft | 414 kts | 159° |
| 2026-05-05 16:21 | 10.69057 | 43.54867 | 23279 ft | 421 kts | 159° |
| 2026-05-05 16:22 | 10.60697 | 43.57921 | 24357 ft | 429 kts | 159° |
| 2026-05-05 16:22 | 10.55058 | 43.60002 | 25108 ft | 433 kts | 156° |
| 2026-05-05 16:23 | 10.49580 | 43.62603 | 25848 ft | 437 kts | 154° |
| 2026-05-05 16:23 | 10.46827 | 43.63924 | 26203 ft | 439 kts | 154° |
| 2026-05-05 16:23 | 10.41286 | 43.66587 | 26902 ft | 443 kts | 154° |
| 2026-05-05 16:24 | 10.38490 | 43.67930 | 27252 ft | 445 kts | 154° |
| 2026-05-05 16:24 | 10.35688 | 43.69274 | 27585 ft | 447 kts | 154° |
| 2026-05-05 16:24 | 10.30037 | 43.71981 | 28298 ft | 451 kts | 154° |
| 2026-05-05 16:25 | 10.27187 | 43.73341 | 28653 ft | 454 kts | 154° |
| 2026-05-05 16:25 | 10.21449 | 43.76083 | 29377 ft | 458 kts | 154° |
| 2026-05-05 16:25 | 10.18559 | 43.77465 | 29743 ft | 460 kts | 154° |
| 2026-05-05 16:26 | 10.12738 | 43.80259 | 30355 ft | 465 kts | 154° |
| 2026-05-05 16:26 | 10.06868 | 43.83069 | 30965 ft | 469 kts | 154° |
| 2026-05-05 16:27 | 10.03906 | 43.84487 | 31254 ft | 471 kts | 154° |
| 2026-05-05 16:27 | 10.00945 | 43.85904 | 31624 ft | 471 kts | 154° |
| 2026-05-05 16:27 | 9.98032 | 43.87298 | 32087 ft | 469 kts | 154° |
| 2026-05-05 16:27 | 9.95086 | 43.88708 | 32545 ft | 467 kts | 154° |
| 2026-05-05 16:28 | 9.92155 | 43.90109 | 32996 ft | 466 kts | 154° |
| 2026-05-05 16:28 | 9.89224 | 43.91510 | 33466 ft | 465 kts | 154° |
| 2026-05-05 16:28 | 9.86305 | 43.92907 | 33938 ft | 463 kts | 154° |
| 2026-05-05 16:28 | 9.83392 | 43.94299 | 34347 ft | 462 kts | 154° |
| 2026-05-05 16:29 | 9.80488 | 43.95684 | 34759 ft | 461 kts | 154° |
| 2026-05-05 16:29 | 9.77588 | 43.97068 | 35143 ft | 460 kts | 154° |
| 2026-05-05 16:29 | 9.74694 | 43.98451 | 35528 ft | 459 kts | 154° |
| 2026-05-05 16:29 | 9.71813 | 43.99829 | 35900 ft | 458 kts | 154° |
| 2026-05-05 16:30 | 9.68933 | 44.01207 | 36269 ft | 457 kts | 154° |
| 2026-05-05 16:30 | 9.66052 | 44.02582 | 36632 ft | 456 kts | 154° |
| 2026-05-05 16:30 | 9.63179 | 44.03953 | 36883 ft | 457 kts | 154° |
| 2026-05-05 16:30 | 9.60312 | 44.05325 | 36935 ft | 456 kts | 154° |
| 2026-05-05 16:31 | 9.54576 | 44.08064 | 36935 ft | 455 kts | 154° |
| 2026-05-05 16:31 | 9.48535 | 44.09945 | 36935 ft | 456 kts | 168° |
| 2026-05-05 16:32 | 9.43365 | 44.11006 | 36937 ft | 456 kts | 167° |
| 2026-05-05 16:32 | 9.37137 | 44.12307 | 36938 ft | 457 kts | 167° |
| 2026-05-05 16:33 | 9.30914 | 44.13603 | 36947 ft | 457 kts | 167° |
| 2026-05-05 16:33 | 9.24681 | 44.14906 | 36945 ft | 457 kts | 167° |
| 2026-05-05 16:34 | 9.18452 | 44.16205 | 36946 ft | 457 kts | 167° |
| 2026-05-05 16:34 | 9.12223 | 44.17503 | 36948 ft | 457 kts | 167° |
| 2026-05-05 16:35 | 9.05987 | 44.18792 | 36948 ft | 457 kts | 167° |
| 2026-05-05 16:35 | 8.99749 | 44.20080 | 36950 ft | 458 kts | 167° |
| 2026-05-05 16:36 | 8.93552 | 44.21369 | 36951 ft | 458 kts | 167° |
| 2026-05-05 16:36 | 8.87332 | 44.22727 | 36957 ft | 457 kts | 166° |
| 2026-05-05 16:37 | 8.81141 | 44.24237 | 36956 ft | 457 kts | 165° |
| 2026-05-05 16:37 | 8.74960 | 44.25767 | 36955 ft | 457 kts | 166° |
| 2026-05-05 16:38 | 8.68766 | 44.27266 | 36953 ft | 458 kts | 166° |
| 2026-05-05 16:38 | 8.62571 | 44.28745 | 36954 ft | 458 kts | 166° |
| 2026-05-05 16:39 | 8.56370 | 44.30228 | 36949 ft | 458 kts | 166° |
| 2026-05-05 16:39 | 8.50170 | 44.31718 | 36951 ft | 458 kts | 166° |
| 2026-05-05 16:40 | 8.43965 | 44.33197 | 36946 ft | 458 kts | 166° |
| 2026-05-05 16:40 | 8.37756 | 44.34683 | 36946 ft | 458 kts | 166° |
| 2026-05-05 16:41 | 8.31551 | 44.36170 | 36948 ft | 459 kts | 166° |
| 2026-05-05 16:41 | 8.25336 | 44.37654 | 36942 ft | 459 kts | 166° |
| 2026-05-05 16:42 | 8.19128 | 44.39138 | 36942 ft | 459 kts | 166° |
| 2026-05-05 16:42 | 8.12913 | 44.40619 | 36922 ft | 459 kts | 166° |
| 2026-05-05 16:43 | 8.06698 | 44.42104 | 36928 ft | 459 kts | 166° |
| 2026-05-05 16:43 | 8.00481 | 44.43585 | 36936 ft | 459 kts | 166° |
| 2026-05-05 16:44 | 7.94269 | 44.45074 | 36933 ft | 459 kts | 166° |
| 2026-05-05 16:44 | 7.88048 | 44.46559 | 36936 ft | 459 kts | 166° |
| 2026-05-05 16:45 | 7.81828 | 44.48036 | 36938 ft | 460 kts | 166° |
| 2026-05-05 16:45 | 7.75637 | 44.49506 | 36939 ft | 460 kts | 166° |
| 2026-05-05 16:46 | 7.69416 | 44.50997 | 36942 ft | 460 kts | 166° |
| 2026-05-05 16:46 | 7.63191 | 44.52488 | 36940 ft | 460 kts | 166° |
| 2026-05-05 16:47 | 7.56959 | 44.53962 | 36942 ft | 460 kts | 166° |
| 2026-05-05 16:47 | 7.50731 | 44.55444 | 36944 ft | 460 kts | 166° |
| 2026-05-05 16:48 | 7.44504 | 44.56929 | 36943 ft | 460 kts | 166° |
| 2026-05-05 16:48 | 7.38270 | 44.58419 | 36947 ft | 460 kts | 166° |
| 2026-05-05 16:49 | 7.32041 | 44.59904 | 36949 ft | 460 kts | 166° |
| 2026-05-05 16:49 | 7.25849 | 44.61377 | 36947 ft | 460 kts | 166° |
| 2026-05-05 16:50 | 7.19618 | 44.62860 | 36949 ft | 460 kts | 166° |
| 2026-05-05 16:50 | 7.13373 | 44.64338 | 36946 ft | 460 kts | 166° |
| 2026-05-05 16:51 | 7.07139 | 44.65815 | 36949 ft | 460 kts | 166° |
| 2026-05-05 16:51 | 7.00903 | 44.67302 | 36949 ft | 460 kts | 166° |
| 2026-05-05 16:52 | 6.94674 | 44.68789 | 36946 ft | 460 kts | 166° |
| 2026-05-05 16:52 | 6.88445 | 44.70263 | 36945 ft | 460 kts | 166° |
| 2026-05-05 16:53 | 6.82215 | 44.71742 | 36942 ft | 460 kts | 166° |
| 2026-05-05 16:53 | 6.75991 | 44.73231 | 36942 ft | 460 kts | 166° |
| 2026-05-05 16:54 | 6.69771 | 44.74697 | 36939 ft | 459 kts | 166° |
| 2026-05-05 16:54 | 6.63547 | 44.76188 | 36937 ft | 459 kts | 166° |
| 2026-05-05 16:55 | 6.57375 | 44.77685 | 36937 ft | 459 kts | 166° |
| 2026-05-05 16:55 | 6.51157 | 44.79187 | 36937 ft | 460 kts | 166° |
| 2026-05-05 16:56 | 6.44937 | 44.80678 | 36937 ft | 460 kts | 166° |
| 2026-05-05 16:56 | 6.38713 | 44.82170 | 36936 ft | 460 kts | 166° |
| 2026-05-05 16:57 | 6.32491 | 44.83668 | 36935 ft | 460 kts | 166° |
| 2026-05-05 16:57 | 6.26269 | 44.85172 | 36931 ft | 460 kts | 166° |
| 2026-05-05 16:58 | 6.20043 | 44.86663 | 36928 ft | 460 kts | 166° |
| 2026-05-05 16:58 | 6.13811 | 44.88153 | 36930 ft | 460 kts | 166° |
| 2026-05-05 16:59 | 6.07586 | 44.89655 | 36932 ft | 460 kts | 166° |
| 2026-05-05 16:59 | 6.01354 | 44.91159 | 36930 ft | 460 kts | 166° |
| 2026-05-05 17:00 | 5.95126 | 44.92655 | 36932 ft | 461 kts | 166° |
| 2026-05-05 17:00 | 5.88887 | 44.94148 | 36932 ft | 461 kts | 166° |
| 2026-05-05 17:01 | 5.82649 | 44.95635 | 36934 ft | 461 kts | 166° |
| 2026-05-05 17:01 | 5.76412 | 44.97131 | 36930 ft | 461 kts | 166° |
| 2026-05-05 17:02 | 5.70175 | 44.98633 | 36930 ft | 461 kts | 166° |
| 2026-05-05 17:02 | 5.63924 | 45.00134 | 36938 ft | 461 kts | 166° |
| 2026-05-05 17:03 | 5.57684 | 45.01638 | 36941 ft | 461 kts | 166° |
| 2026-05-05 17:03 | 5.51437 | 45.03131 | 36939 ft | 461 kts | 166° |
| 2026-05-05 17:04 | 5.45193 | 45.04620 | 36936 ft | 461 kts | 166° |
| 2026-05-05 17:04 | 5.38946 | 45.06114 | 36929 ft | 461 kts | 166° |
| 2026-05-05 17:05 | 5.32700 | 45.07615 | 36931 ft | 461 kts | 166° |
| 2026-05-05 17:05 | 5.26500 | 45.09102 | 36930 ft | 461 kts | 166° |
| 2026-05-05 17:06 | 5.20250 | 45.10597 | 36934 ft | 461 kts | 166° |
| 2026-05-05 17:06 | 5.14008 | 45.12090 | 36939 ft | 461 kts | 166° |
| 2026-05-05 17:07 | 5.07765 | 45.13574 | 36942 ft | 461 kts | 167° |
| 2026-05-05 17:07 | 5.01477 | 45.14807 | 36940 ft | 461 kts | 170° |
| 2026-05-05 17:08 | 4.95154 | 45.15865 | 36939 ft | 460 kts | 171° |
| 2026-05-05 17:08 | 4.88839 | 45.16949 | 36944 ft | 460 kts | 170° |
| 2026-05-05 17:09 | 4.82538 | 45.18086 | 36940 ft | 460 kts | 169° |
| 2026-05-05 17:09 | 4.76237 | 45.19247 | 36938 ft | 460 kts | 169° |
| 2026-05-05 17:10 | 4.69934 | 45.20390 | 36942 ft | 460 kts | 170° |
| 2026-05-05 17:10 | 4.63628 | 45.21533 | 36938 ft | 460 kts | 169° |
| 2026-05-05 17:11 | 4.57325 | 45.22677 | 36942 ft | 460 kts | 169° |
| 2026-05-05 17:11 | 4.51023 | 45.23821 | 36939 ft | 460 kts | 169° |
| 2026-05-05 17:12 | 4.44715 | 45.24957 | 36941 ft | 460 kts | 169° |
| 2026-05-05 17:12 | 4.38456 | 45.26084 | 36943 ft | 460 kts | 169° |
| 2026-05-05 17:13 | 4.32164 | 45.27223 | 36940 ft | 460 kts | 169° |
| 2026-05-05 17:13 | 4.25867 | 45.28365 | 36935 ft | 459 kts | 169° |
| 2026-05-05 17:14 | 4.19577 | 45.29500 | 36936 ft | 459 kts | 169° |
| 2026-05-05 17:14 | 4.13299 | 45.30635 | 36936 ft | 459 kts | 169° |
| 2026-05-05 17:15 | 4.07024 | 45.31770 | 36934 ft | 458 kts | 169° |
| 2026-05-05 17:15 | 4.00748 | 45.32906 | 36933 ft | 458 kts | 169° |
| 2026-05-05 17:16 | 3.94477 | 45.34038 | 36927 ft | 458 kts | 169° |
| 2026-05-05 17:16 | 3.88200 | 45.35170 | 36928 ft | 458 kts | 168° |
| 2026-05-05 17:17 | 3.81942 | 45.36388 | 36928 ft | 458 kts | 167° |
| 2026-05-05 17:17 | 3.75700 | 45.37678 | 36924 ft | 458 kts | 167° |
| 2026-05-05 17:18 | 3.69454 | 45.38962 | 36927 ft | 458 kts | 167° |
| 2026-05-05 17:18 | 3.63206 | 45.40219 | 36924 ft | 458 kts | 167° |
| 2026-05-05 17:19 | 3.56960 | 45.41472 | 36927 ft | 458 kts | 167° |
| 2026-05-05 17:19 | 3.50720 | 45.42726 | 36922 ft | 457 kts | 167° |
| 2026-05-05 17:20 | 3.44527 | 45.43975 | 36917 ft | 457 kts | 167° |
| 2026-05-05 17:20 | 3.38283 | 45.45227 | 36912 ft | 458 kts | 167° |
| 2026-05-05 17:21 | 3.32038 | 45.46491 | 36913 ft | 458 kts | 167° |
| 2026-05-05 17:22 | 3.22647 | 45.48389 | 36168 ft | 464 kts | 168° |
| 2026-05-05 17:22 | 3.19448 | 45.49034 | 35138 ft | 475 kts | 168° |
| 2026-05-05 17:22 | 3.16185 | 45.49691 | 34216 ft | 482 kts | 168° |
| 2026-05-05 17:22 | 3.12882 | 45.50352 | 33427 ft | 484 kts | 168° |
| 2026-05-05 17:23 | 3.09577 | 45.51015 | 32699 ft | 484 kts | 168° |
| 2026-05-05 17:23 | 3.06280 | 45.51678 | 32008 ft | 483 kts | 168° |
| 2026-05-05 17:23 | 3.02996 | 45.52341 | 31423 ft | 479 kts | 168° |
| 2026-05-05 17:23 | 3.00839 | 45.52775 | 31046 ft | 477 kts | 169° |
| 2026-05-05 17:24 | 2.97595 | 45.53426 | 30491 ft | 473 kts | 169° |
| 2026-05-05 17:24 | 2.94380 | 45.54071 | 29938 ft | 469 kts | 169° |
| 2026-05-05 17:24 | 2.91188 | 45.54713 | 29310 ft | 465 kts | 169° |
| 2026-05-05 17:24 | 2.88035 | 45.55350 | 28698 ft | 461 kts | 169° |
| 2026-05-05 17:25 | 2.84901 | 45.55980 | 28098 ft | 457 kts | 169° |
| 2026-05-05 17:25 | 2.82843 | 45.56394 | 27712 ft | 454 kts | 168° |
| 2026-05-05 17:25 | 2.78730 | 45.57223 | 26944 ft | 449 kts | 168° |
| 2026-05-05 17:25 | 2.75677 | 45.57838 | 26388 ft | 445 kts | 168° |
| 2026-05-05 17:26 | 2.72654 | 45.58446 | 25833 ft | 441 kts | 168° |
| 2026-05-05 17:26 | 2.69660 | 45.59048 | 25291 ft | 437 kts | 168° |
| 2026-05-05 17:26 | 2.66690 | 45.59645 | 24755 ft | 434 kts | 168° |
| 2026-05-05 17:26 | 2.63731 | 45.60239 | 24163 ft | 433 kts | 168° |
| 2026-05-05 17:27 | 2.60787 | 45.60830 | 23579 ft | 431 kts | 168° |
| 2026-05-05 17:27 | 2.57855 | 45.61416 | 22914 ft | 429 kts | 168° |
| 2026-05-05 17:27 | 2.54934 | 45.62004 | 22249 ft | 427 kts | 168° |
| 2026-05-05 17:27 | 2.52068 | 45.62580 | 21602 ft | 425 kts | 168° |
| 2026-05-05 17:28 | 2.49180 | 45.63159 | 20964 ft | 423 kts | 167° |
| 2026-05-05 17:28 | 2.46304 | 45.63737 | 20345 ft | 420 kts | 167° |
| 2026-05-05 17:28 | 2.43443 | 45.64310 | 19739 ft | 418 kts | 167° |
| 2026-05-05 17:28 | 2.40595 | 45.64882 | 19152 ft | 416 kts | 167° |
| 2026-05-05 17:29 | 2.37761 | 45.65453 | 18578 ft | 414 kts | 167° |
| 2026-05-05 17:29 | 2.34944 | 45.66023 | 17990 ft | 412 kts | 167° |
| 2026-05-05 17:29 | 2.32153 | 45.66588 | 17348 ft | 409 kts | 167° |
| 2026-05-05 17:29 | 2.29375 | 45.67149 | 16717 ft | 405 kts | 167° |
| 2026-05-05 17:30 | 2.26628 | 45.67702 | 16186 ft | 400 kts | 167° |
| 2026-05-05 17:30 | 2.23922 | 45.68244 | 15686 ft | 394 kts | 167° |
| 2026-05-05 17:30 | 2.21256 | 45.68776 | 15198 ft | 388 kts | 167° |
| 2026-05-05 17:30 | 2.18666 | 45.69286 | 14729 ft | 382 kts | 167° |
| 2026-05-05 17:31 | 2.16035 | 45.69792 | 14253 ft | 377 kts | 167° |
| 2026-05-05 17:31 | 2.13473 | 45.70279 | 13813 ft | 372 kts | 167° |
| 2026-05-05 17:31 | 2.10949 | 45.70755 | 13331 ft | 367 kts | 168° |
| 2026-05-05 17:31 | 2.08413 | 45.70837 | 12841 ft | 366 kts | 188° |
| 2026-05-05 17:32 | 2.06041 | 45.69972 | 12361 ft | 365 kts | 211° |
| 2026-05-05 17:32 | 2.04202 | 45.68257 | 11885 ft | 362 kts | 235° |
| 2026-05-05 17:32 | 2.02914 | 45.66114 | 11426 ft | 358 kts | 240° |
| 2026-05-05 17:32 | 2.01684 | 45.63962 | 10975 ft | 355 kts | 240° |
| 2026-05-05 17:33 | 2.00472 | 45.61828 | 10543 ft | 351 kts | 240° |
| 2026-05-05 17:33 | 1.99274 | 45.59716 | 10112 ft | 348 kts | 240° |
| 2026-05-05 17:33 | 1.98083 | 45.57624 | 9689 ft | 344 kts | 240° |
| 2026-05-05 17:33 | 1.96901 | 45.55559 | 9215 ft | 340 kts | 240° |
| 2026-05-05 17:34 | 1.95725 | 45.53521 | 8785 ft | 337 kts | 240° |
| 2026-05-05 17:34 | 1.94563 | 45.51506 | 8347 ft | 333 kts | 240° |
| 2026-05-05 17:34 | 1.93414 | 45.49511 | 7930 ft | 329 kts | 240° |
| 2026-05-05 17:34 | 1.92288 | 45.47555 | 7714 ft | 319 kts | 240° |
| 2026-05-05 17:35 | 1.91220 | 45.45699 | 7564 ft | 296 kts | 240° |
| 2026-05-05 17:35 | 1.90217 | 45.43958 | 7139 ft | 284 kts | 240° |
| 2026-05-05 17:35 | 1.89239 | 45.42265 | 6613 ft | 278 kts | 240° |
| 2026-05-05 17:35 | 1.88301 | 45.40638 | 6416 ft | 260 kts | 239° |
| 2026-05-05 17:36 | 1.87433 | 45.39127 | 6295 ft | 241 kts | 239° |
| 2026-05-05 17:36 | 1.86622 | 45.37719 | 6192 ft | 228 kts | 239° |
| 2026-05-05 17:36 | 1.85846 | 45.36372 | 6091 ft | 219 kts | 239° |
| 2026-05-05 17:36 | 1.85104 | 45.35079 | 5964 ft | 211 kts | 239° |
| 2026-05-05 17:37 | 1.84374 | 45.33823 | 5790 ft | 207 kts | 239° |
| 2026-05-05 17:37 | 1.83660 | 45.32601 | 5619 ft | 201 kts | 238° |
| 2026-05-05 17:37 | 1.82968 | 45.31413 | 5449 ft | 195 kts | 239° |
| 2026-05-05 17:37 | 1.82294 | 45.30256 | 5292 ft | 190 kts | 238° |
| 2026-05-05 17:38 | 1.81649 | 45.29153 | 5159 ft | 181 kts | 238° |
| 2026-05-05 17:38 | 1.81045 | 45.28096 | 5009 ft | 171 kts | 242° |
| 2026-05-05 17:38 | 1.80608 | 45.27013 | 4851 ft | 167 kts | 250° |
| 2026-05-05 17:38 | 1.80354 | 45.25881 | 4709 ft | 167 kts | 259° |
| 2026-05-05 17:39 | 1.80286 | 45.24715 | 4559 ft | 169 kts | 268° |
| 2026-05-05 17:39 | 1.80411 | 45.23543 | 4411 ft | 171 kts | 277° |
| 2026-05-05 17:39 | 1.80729 | 45.22392 | 4256 ft | 173 kts | 286° |
| 2026-05-05 17:39 | 1.81242 | 45.21296 | 4102 ft | 175 kts | 296° |
| 2026-05-05 17:40 | 1.81935 | 45.20293 | 3957 ft | 176 kts | 305° |
| 2026-05-05 17:40 | 1.82795 | 45.19412 | 3804 ft | 178 kts | 315° |
| 2026-05-05 17:40 | 1.83805 | 45.18687 | 3649 ft | 180 kts | 326° |
| 2026-05-05 17:40 | 1.84942 | 45.18140 | 3490 ft | 182 kts | 336° |
| 2026-05-05 17:41 | 1.86167 | 45.17802 | 3338 ft | 184 kts | 348° |
| 2026-05-05 17:41 | 1.87441 | 45.17682 | 3174 ft | 185 kts | 358° |
| 2026-05-05 17:41 | 1.88718 | 45.17792 | 3013 ft | 185 kts | 9° |
| 2026-05-05 17:41 | 1.89970 | 45.18129 | 2846 ft | 187 kts | 20° |
| 2026-05-05 17:42 | 1.91144 | 45.18693 | 2680 ft | 187 kts | 32° |
| 2026-05-05 17:42 | 1.92190 | 45.19459 | 2519 ft | 187 kts | 43° |
| 2026-05-05 17:42 | 1.93082 | 45.20395 | 2360 ft | 185 kts | 54° |
| 2026-05-05 17:42 | 1.93890 | 45.21393 | 2119 ft | 185 kts | 52° |
| 2026-05-05 17:43 | 1.94707 | 45.22390 | 1883 ft | 183 kts | 52° |
| 2026-05-05 17:43 | 1.95512 | 45.23365 | 1650 ft | 182 kts | 51° |
| 2026-05-05 17:43 | 1.96323 | 45.24336 | 1382 ft | 182 kts | 52° |
| 2026-05-05 17:43 | 1.97131 | 45.25301 | 1136 ft | 180 kts | 51° |
| 2026-05-05 17:44 | 1.97930 | 45.26257 | 899 ft | 181 kts | 51° |
| 2026-05-05 17:44 | 1.98702 | 45.27179 | 653 ft | 163 kts | 52° |
| 2026-05-05 17:44 | 1.99406 | 45.28017 | 439 ft | 151 kts | 52° |
| 2026-05-05 17:44 | 2.00064 | 45.28817 | 202 ft | 147 kts | 51° |
| 2026-05-05 17:45 | 2.00721 | 45.29598 | 31 ft | 140 kts | 50° |
| 2026-05-05 17:45 | 2.01258 | 45.30237 | 28 ft | 96 kts | 50° |
| 2026-05-05 17:45 | 2.01572 | 45.30614 | 28 ft | 34 kts | 50° |
| 2026-05-05 17:45 | 2.01645 | 45.30653 | 29 ft | 6 kts | 313° |
| 2026-05-05 17:46 | 2.01684 | 45.30618 | 30 ft | 9 kts | 319° |
| 2026-05-05 17:46 | 2.01737 | 45.30572 | 30 ft | 12 kts | 318° |
| 2026-05-05 17:46 | 2.01741 | 45.30507 | 30 ft | 10 kts | 245° |
| 2026-05-05 17:46 | 2.01768 | 45.30475 | 30 ft | 4 kts | 326° |
| 2026-05-05 17:47 | 2.01779 | 45.30467 | 28 ft | 0 kts | 324° |